createdAt,value
2019-01-17T00:02:41.632Z,81.98
2019-01-17T00:05:12.061Z,81.96
2019-01-17T00:07:47.704Z,82.02
2019-01-17T00:10:34.251Z,82.19
2019-01-17T00:13:04.364Z,82.06
2019-01-17T00:15:40.039Z,81.86
2019-01-17T00:18:10.174Z,82.02
2019-01-17T00:20:58.315Z,82.15
2019-01-17T00:23:37.291Z,82.48
2019-01-17T00:26:07.389Z,82.58
2019-01-17T00:28:37.512Z,82.71
2019-01-17T00:31:07.601Z,82.52
2019-01-17T00:33:40.260Z,82.51
2019-01-17T00:36:10.372Z,82.83
2019-01-17T00:38:46.109Z,82.58
2019-01-17T00:44:10.970Z,82.93
2019-01-17T00:46:41.053Z,82.66
2019-01-17T00:49:13.616Z,82.46
2019-01-17T00:51:58.929Z,82.42
2019-01-17T00:54:29.065Z,82.74
2019-01-17T00:57:01.611Z,82.43
2019-01-17T00:59:47.019Z,82.64
2019-01-17T01:02:19.857Z,82.49
2019-01-17T01:05:05.287Z,82.65
2019-01-17T01:07:41.449Z,82.78
2019-01-17T01:10:15.995Z,82.76
2019-01-17T01:12:49.101Z,82.72
2019-01-17T01:15:35.579Z,82.70
2019-01-17T01:18:22.134Z,82.67
2019-01-17T01:21:07.195Z,82.60
2019-01-17T01:23:39.741Z,82.66
2019-01-17T01:26:26.061Z,82.65
2019-01-17T01:28:58.965Z,82.49
2019-01-17T01:31:35.019Z,82.69
2019-01-17T01:34:05.136Z,82.55
2019-01-17T01:36:37.947Z,82.58
2019-01-17T01:39:21.308Z,82.58
2019-01-17T01:42:00.267Z,82.53
2019-01-17T01:44:46.956Z,82.65
2019-01-17T01:47:19.695Z,82.66
2019-01-17T01:49:52.491Z,82.62
2019-01-17T01:52:28.116Z,82.76
2019-01-17T01:54:56.589Z,82.60
2019-01-17T01:57:25.049Z,82.47
2019-01-17T01:59:53.550Z,82.71
2019-01-17T02:02:22.043Z,82.50
2019-01-17T02:04:50.507Z,82.57
2019-01-17T02:07:18.991Z,82.72
2019-01-17T02:09:47.450Z,82.42
2019-01-17T02:12:15.949Z,82.44
2019-01-17T02:14:44.711Z,82.29
2019-01-17T02:17:13.264Z,82.28
2019-01-17T02:19:41.709Z,82.21
2019-01-17T02:22:10.191Z,82.24
2019-01-17T02:24:38.638Z,82.29
2019-01-17T02:27:07.117Z,82.17
2019-01-17T02:29:35.570Z,81.93
2019-01-17T02:32:04.182Z,81.92
2019-01-17T02:34:32.635Z,81.79
2019-01-17T02:37:01.119Z,81.68
2019-01-17T02:39:29.562Z,81.63
2019-01-17T02:41:58.038Z,81.23
2019-01-17T02:44:26.490Z,81.32
2019-01-17T02:46:54.972Z,81.23
2019-01-17T02:49:23.422Z,81.05
2019-01-17T02:51:51.904Z,81.11
2019-01-17T02:54:20.350Z,81.12
2019-01-17T02:56:48.829Z,80.68
2019-01-17T02:59:17.279Z,80.73
2019-01-17T03:01:45.758Z,80.68
2019-01-17T03:04:14.218Z,80.38
2019-01-17T03:06:42.720Z,80.27
2019-01-17T03:09:11.248Z,80.43
2019-01-17T03:11:39.708Z,80.10
2019-01-17T03:14:08.187Z,80.21
2019-01-17T03:16:36.647Z,80.24
2019-01-17T03:19:05.463Z,79.54
2019-01-17T03:21:34.034Z,79.94
2019-01-17T03:24:02.501Z,79.93
2019-01-17T03:26:30.955Z,80.01
2019-01-17T03:28:59.435Z,79.93
2019-01-17T03:31:27.891Z,79.86
2019-01-17T03:33:56.362Z,79.87
2019-01-17T03:36:24.906Z,79.58
2019-01-17T03:38:53.365Z,79.22
2019-01-17T03:41:21.822Z,79.40
2019-01-17T03:43:50.363Z,79.51
2019-01-17T03:46:18.811Z,79.79
2019-01-17T03:48:47.292Z,79.52
2019-01-17T03:51:15.747Z,79.53
2019-01-17T03:53:44.235Z,79.57
2019-01-17T03:56:12.683Z,79.15
2019-01-17T03:58:41.171Z,79.19
2019-01-17T04:01:09.629Z,78.97
2019-01-17T04:03:38.105Z,79.30
2019-01-17T04:06:06.560Z,79.27
2019-01-17T04:08:35.042Z,79.25
2019-01-17T04:11:03.559Z,79.38
2019-01-17T04:13:32.043Z,79.56
2019-01-17T04:16:00.490Z,79.76
2019-01-17T04:18:28.996Z,79.18
2019-01-17T04:20:57.528Z,79.65
2019-01-17T04:23:25.981Z,79.68
2019-01-17T04:25:54.463Z,79.72
2019-01-17T04:28:22.930Z,79.95
2019-01-17T04:30:51.410Z,80.00
2019-01-17T04:33:19.861Z,79.88
2019-01-17T04:35:48.337Z,79.89
2019-01-17T04:38:16.822Z,79.86
2019-01-17T04:40:45.303Z,79.95
2019-01-17T04:43:13.750Z,79.78
2019-01-17T04:45:42.236Z,79.85
2019-01-17T04:48:10.684Z,79.66
2019-01-17T04:50:39.166Z,79.85
2019-01-17T04:53:07.619Z,80.00
2019-01-17T04:55:36.094Z,79.54
2019-01-17T04:58:04.726Z,79.99
2019-01-17T05:00:33.208Z,79.82
2019-01-17T05:03:01.657Z,79.76
2019-01-17T05:05:30.138Z,79.63
2019-01-17T05:07:58.600Z,79.32
2019-01-17T05:10:27.082Z,79.79
2019-01-17T05:12:55.547Z,79.99
2019-01-17T05:15:24.033Z,79.84
2019-01-17T05:17:52.490Z,80.10
2019-01-17T05:20:20.978Z,79.93
2019-01-17T05:22:49.438Z,79.73
2019-01-17T05:25:17.921Z,80.17
2019-01-17T05:27:46.378Z,79.58
2019-01-17T05:30:17.176Z,80.14
2019-01-17T05:32:45.895Z,80.07
2019-01-17T05:35:14.738Z,79.86
2019-01-17T05:37:43.278Z,79.85
2019-01-17T05:40:14.792Z,79.92
2019-01-17T05:42:43.248Z,80.17
2019-01-17T05:45:11.949Z,80.11
2019-01-17T05:47:40.414Z,80.10
2019-01-17T05:50:12.107Z,80.40
2019-01-17T05:52:40.577Z,79.97
2019-01-17T05:55:09.400Z,80.25
2019-01-17T05:57:37.881Z,80.17
2019-01-17T06:00:09.384Z,80.16
2019-01-17T06:02:37.866Z,80.46
2019-01-17T06:05:08.253Z,80.83
2019-01-17T06:07:36.729Z,80.88
2019-01-17T06:10:08.221Z,80.84
2019-01-17T06:12:36.700Z,81.17
2019-01-17T06:15:07.887Z,81.33
2019-01-17T06:17:36.362Z,81.38
2019-01-17T06:20:08.052Z,81.77
2019-01-17T06:22:36.529Z,81.50
2019-01-17T06:25:06.030Z,81.57
2019-01-17T06:27:34.510Z,81.61
2019-01-17T06:30:02.973Z,81.36
2019-01-17T06:32:31.452Z,81.48
2019-01-17T06:35:00.141Z,81.66
2019-01-17T06:37:28.648Z,81.76
2019-01-17T06:39:57.100Z,81.75
2019-01-17T06:42:25.568Z,81.67
2019-01-17T06:44:54.031Z,81.55
2019-01-17T06:47:22.506Z,81.52
2019-01-17T06:49:50.958Z,81.76
2019-01-17T06:52:19.508Z,81.83
2019-01-17T06:54:47.978Z,81.80
2019-01-17T06:57:16.444Z,81.67
2019-01-17T06:59:44.927Z,81.93
2019-01-17T07:02:13.405Z,81.93
2019-01-17T07:04:41.854Z,81.80
2019-01-17T07:07:10.327Z,81.90
2019-01-17T07:09:38.779Z,81.85
2019-01-17T07:12:07.262Z,81.73
2019-01-17T07:14:35.713Z,81.72
2019-01-17T07:17:04.184Z,81.79
2019-01-17T07:19:32.672Z,82.19
2019-01-17T07:22:01.144Z,82.39
2019-01-17T07:24:29.602Z,82.68
2019-01-17T07:26:58.072Z,83.03
2019-01-17T07:29:26.527Z,82.96
2019-01-17T07:31:55.018Z,83.34
2019-01-17T07:34:23.554Z,83.31
2019-01-17T07:36:52.001Z,83.28
2019-01-17T07:39:20.489Z,83.33
2019-01-17T07:41:48.941Z,83.14
2019-01-17T07:44:17.418Z,83.18
2019-01-17T07:46:45.860Z,83.21
2019-01-17T07:49:14.340Z,83.11
2019-01-17T07:51:42.792Z,83.15
2019-01-17T07:54:11.302Z,83.13
2019-01-17T07:56:39.757Z,83.58
2019-01-17T07:59:08.233Z,83.62
2019-01-17T08:01:36.687Z,83.73
2019-01-17T08:04:05.406Z,83.87
2019-01-17T08:06:34.034Z,84.02
2019-01-17T08:09:02.645Z,84.10
2019-01-17T08:11:31.097Z,84.24
2019-01-17T08:13:59.545Z,84.13
2019-01-17T08:16:28.023Z,84.32
2019-01-17T08:18:56.499Z,84.08
2019-01-17T08:21:26.029Z,84.21
2019-01-17T08:23:54.612Z,84.02
2019-01-17T08:26:23.073Z,84.03
2019-01-17T08:28:51.550Z,83.69
2019-01-17T08:31:20.198Z,83.52
2019-01-17T08:33:48.691Z,83.55
2019-01-17T08:36:17.306Z,83.14
2019-01-17T08:38:45.788Z,83.27
2019-01-17T08:41:14.361Z,83.17
2019-01-17T08:43:42.846Z,83.03
2019-01-17T08:46:11.307Z,82.75
2019-01-17T08:48:39.807Z,82.70
2019-01-17T08:51:08.268Z,82.60
2019-01-17T08:53:36.783Z,82.73
2019-01-17T08:56:05.673Z,82.75
2019-01-17T08:58:34.150Z,82.98
2019-01-17T09:01:02.604Z,83.18
2019-01-17T09:03:31.068Z,83.09
2019-01-17T09:05:59.524Z,83.32
2019-01-17T09:08:28.007Z,82.96
2019-01-17T09:10:56.463Z,83.35
2019-01-17T09:13:24.945Z,83.32
2019-01-17T09:15:53.407Z,82.99
2019-01-17T09:18:21.876Z,82.97
2019-01-17T09:20:50.322Z,82.57
2019-01-17T09:23:18.893Z,82.39
2019-01-17T09:25:47.352Z,82.39
2019-01-17T09:28:15.805Z,82.17
2019-01-17T09:30:44.280Z,82.25
2019-01-17T09:33:12.716Z,82.47
2019-01-17T09:35:41.193Z,81.97
2019-01-17T09:38:09.651Z,82.46
2019-01-17T09:40:38.130Z,81.96
2019-01-17T09:43:06.586Z,82.04
2019-01-17T09:45:35.066Z,81.83
2019-01-17T09:48:03.509Z,81.95
2019-01-17T09:50:32.061Z,81.01
2019-01-17T09:53:00.590Z,81.10
2019-01-17T09:55:29.078Z,81.26
2019-01-17T09:57:57.545Z,81.20
2019-01-17T10:00:27.866Z,80.07
2019-01-17T10:02:56.407Z,79.68
2019-01-17T10:05:24.959Z,78.50
2019-01-17T10:07:53.681Z,79.42
2019-01-17T10:10:24.498Z,77.95
2019-01-17T10:12:53.132Z,77.81
2019-01-17T10:15:39.682Z,78.69
2019-01-17T10:18:32.232Z,79.06
2019-01-17T10:21:35.406Z,78.46
2019-01-17T10:24:18.315Z,79.06
2019-01-17T10:26:55.597Z,78.94
2019-01-17T10:29:42.131Z,77.70
2019-01-17T10:32:25.426Z,77.86
2019-01-17T10:35:03.061Z,78.09
2019-01-17T10:37:49.696Z,78.42
2019-01-17T10:40:32.692Z,78.86
2019-01-17T10:43:39.379Z,79.13
2019-01-17T10:46:13.921Z,78.60
2019-01-17T10:49:06.063Z,78.90
2019-01-17T10:52:06.012Z,78.25
2019-01-17T10:54:49.209Z,78.05
2019-01-17T10:57:37.224Z,76.63
2019-01-17T11:00:17.887Z,76.96
2019-01-17T11:03:01.549Z,77.10
2019-01-17T11:05:35.633Z,77.18
2019-01-17T11:08:07.134Z,76.60
2019-01-17T11:10:53.615Z,77.06
2019-01-17T11:13:25.122Z,75.45
2019-01-17T11:15:56.655Z,75.91
2019-01-17T11:18:31.198Z,76.05
2019-01-17T11:21:29.870Z,75.19
2019-01-17T11:24:36.182Z,76.11
2019-01-17T11:27:24.176Z,76.52
2019-01-17T11:30:15.602Z,75.25
2019-01-17T11:33:02.040Z,76.90
2019-01-17T11:35:33.536Z,75.30
2019-01-17T11:38:14.001Z,74.74
2019-01-17T11:40:45.509Z,75.55
2019-01-17T11:43:36.701Z,74.55
2019-01-17T11:46:41.073Z,74.35
2019-01-17T11:49:18.330Z,74.92
2019-01-17T11:52:12.375Z,75.57
2019-01-17T11:54:58.839Z,75.72
2019-01-17T11:57:36.489Z,75.82
2019-01-17T12:00:13.930Z,75.33
2019-01-17T12:02:48.275Z,75.05
2019-01-17T12:05:16.804Z,75.44
2019-01-17T12:07:46.180Z,74.37
2019-01-17T12:10:14.683Z,73.89
2019-01-17T12:12:43.441Z,74.39
2019-01-17T12:15:12.143Z,72.90
2019-01-17T12:17:40.628Z,74.03
2019-01-17T12:20:09.522Z,72.05
2019-01-17T12:22:37.998Z,74.32
2019-01-17T12:25:06.931Z,73.70
2019-01-17T12:27:35.403Z,73.66
2019-01-17T12:30:05.241Z,73.34
2019-01-17T12:32:33.737Z,73.27
2019-01-17T12:35:02.247Z,72.08
2019-01-17T12:37:30.702Z,73.05
2019-01-17T12:39:59.182Z,71.99
2019-01-17T12:42:27.650Z,71.96
2019-01-17T12:44:56.123Z,72.38
2019-01-17T12:47:24.589Z,70.90
2019-01-17T12:49:53.061Z,71.34
2019-01-17T12:52:21.541Z,71.11
2019-01-17T12:54:50.978Z,71.26
2019-01-17T12:57:19.430Z,72.33
2019-01-17T12:59:47.895Z,70.94
2019-01-17T13:02:16.345Z,70.44
2019-01-17T13:04:44.828Z,70.12
2019-01-17T13:07:13.305Z,69.69
2019-01-17T13:09:41.808Z,68.50
2019-01-17T13:12:10.254Z,70.17
2019-01-17T13:14:38.726Z,67.91
2019-01-17T13:17:07.176Z,68.21
2019-01-17T13:19:35.657Z,69.98
2019-01-17T13:22:04.351Z,69.58
2019-01-17T13:24:32.827Z,67.14
2019-01-17T13:27:01.281Z,69.58
2019-01-17T13:29:29.748Z,68.78
2019-01-17T13:31:58.229Z,69.32
2019-01-17T13:34:26.722Z,67.67
2019-01-17T13:36:55.167Z,68.32
2019-01-17T13:39:23.632Z,67.91
2019-01-17T13:41:52.119Z,67.88
2019-01-17T13:44:20.575Z,69.10
2019-01-17T13:46:49.056Z,68.44
2019-01-17T13:49:17.504Z,69.31
2019-01-17T13:51:45.986Z,69.55
2019-01-17T13:54:14.437Z,68.49
2019-01-17T13:56:43.381Z,67.21
2019-01-17T13:59:11.839Z,68.61
2019-01-17T14:01:40.312Z,68.82
2019-01-17T14:04:08.829Z,68.13
2019-01-17T14:06:37.304Z,66.79
2019-01-17T14:09:08.065Z,67.43
2019-01-17T14:11:36.539Z,68.05
2019-01-17T14:14:05.264Z,66.18
2019-01-17T14:16:33.744Z,67.40
2019-01-17T14:19:02.197Z,68.62
2019-01-17T14:21:30.670Z,68.22
2019-01-17T14:23:59.125Z,68.33
2019-01-17T14:26:27.598Z,68.19
2019-01-17T14:28:56.074Z,66.84
2019-01-17T14:31:24.560Z,68.16
2019-01-17T14:33:53.011Z,67.04
2019-01-17T14:36:21.487Z,66.84
2019-01-17T14:38:50.040Z,67.30
2019-01-17T14:41:18.513Z,68.44
2019-01-17T14:43:46.967Z,69.01
2019-01-17T14:46:15.442Z,69.05
2019-01-17T14:48:43.895Z,69.16
2019-01-17T14:51:12.377Z,69.20
2019-01-17T14:53:40.844Z,69.14
2019-01-17T14:56:09.327Z,68.85
2019-01-17T14:58:37.797Z,68.40
2019-01-17T15:01:06.271Z,68.98
2019-01-17T15:03:34.722Z,69.83
2019-01-17T15:06:03.210Z,69.99
2019-01-17T15:08:31.666Z,69.73
2019-01-17T15:11:00.147Z,70.42
2019-01-17T15:13:28.608Z,70.67
2019-01-17T15:15:57.060Z,70.58
2019-01-17T15:18:25.584Z,71.04
2019-01-17T15:20:54.002Z,71.26
2019-01-17T15:23:22.477Z,71.59
2019-01-17T15:25:50.938Z,71.89
2019-01-17T15:28:19.416Z,72.02
2019-01-17T15:30:47.875Z,72.25
2019-01-17T15:33:16.419Z,72.71
2019-01-17T15:35:44.870Z,72.75
2019-01-17T15:38:13.351Z,72.87
2019-01-17T15:40:41.880Z,73.16
2019-01-17T15:43:10.357Z,73.10
2019-01-17T15:45:38.803Z,73.30
2019-01-17T15:48:07.371Z,73.54
2019-01-17T15:50:35.832Z,73.85
2019-01-17T15:53:04.317Z,73.79
2019-01-17T15:55:32.764Z,74.08
2019-01-17T15:58:01.250Z,74.13
2019-01-17T16:00:31.130Z,74.39
2019-01-17T16:02:59.609Z,74.55
2019-01-17T16:05:28.056Z,74.69
2019-01-17T16:07:56.538Z,74.85
2019-01-17T16:10:24.990Z,74.91
2019-01-17T16:12:53.467Z,75.59
2019-01-17T16:15:24.268Z,75.37
2019-01-17T16:17:52.751Z,76.04
2019-01-17T16:20:21.201Z,76.00
2019-01-17T16:22:49.678Z,76.73
2019-01-17T16:25:18.128Z,77.28
2019-01-17T16:27:52.762Z,78.45
2019-01-17T16:30:19.322Z,77.06
2019-01-17T16:32:48.079Z,77.32
2019-01-17T16:35:16.519Z,77.42
2019-01-17T16:37:45.074Z,76.97
2019-01-17T16:40:14.592Z,77.25
2019-01-17T16:42:43.069Z,77.15
2019-01-17T16:45:17.067Z,77.40
2019-01-17T16:47:45.553Z,77.91
2019-01-17T16:50:19.104Z,77.85
2019-01-17T16:52:47.641Z,77.32
2019-01-17T16:55:16.663Z,77.53
2019-01-17T16:57:49.127Z,78.75
2019-01-17T17:00:18.447Z,78.05
2019-01-17T17:02:46.988Z,78.92
2019-01-17T17:05:15.621Z,78.81
2019-01-17T17:07:44.136Z,78.36
2019-01-17T17:10:14.926Z,77.77
2019-01-17T17:12:43.382Z,77.84
2019-01-17T17:15:11.854Z,78.27
2019-01-17T17:17:40.308Z,78.47
2019-01-17T17:20:17.933Z,78.85
2019-01-17T17:22:46.559Z,79.63
2019-01-17T17:25:15.102Z,79.82
2019-01-17T17:27:43.620Z,80.84
2019-01-17T17:30:14.907Z,80.67
2019-01-17T17:32:43.362Z,82.75
2019-01-17T17:35:12.280Z,82.54
2019-01-17T17:37:40.740Z,83.72
2019-01-17T17:40:17.899Z,82.76
2019-01-17T17:42:46.348Z,84.30
2019-01-17T17:45:14.967Z,85.14
2019-01-17T17:47:43.416Z,83.52
2019-01-17T17:50:14.599Z,83.06
2019-01-17T17:52:43.291Z,84.33
2019-01-17T17:55:14.014Z,84.17
2019-01-17T17:57:42.638Z,85.40
2019-01-17T18:00:28.992Z,86.50
2019-01-17T18:02:57.450Z,86.20
2019-01-17T18:05:25.931Z,86.79
2019-01-17T18:07:54.382Z,86.48
2019-01-17T18:10:22.854Z,86.24
2019-01-17T18:12:51.311Z,86.68
2019-01-17T18:15:19.957Z,87.45
2019-01-17T18:17:48.645Z,86.38
2019-01-17T18:20:18.253Z,88.20
2019-01-17T18:22:46.705Z,88.66
2019-01-17T18:25:15.353Z,88.55
2019-01-17T18:27:43.810Z,88.07
2019-01-17T18:30:15.293Z,87.35
2019-01-17T18:32:43.752Z,87.16
2019-01-17T18:35:12.394Z,88.29
2019-01-17T18:37:40.916Z,88.96
2019-01-17T18:40:12.138Z,88.53
2019-01-17T18:42:40.603Z,88.31
2019-01-17T18:45:11.988Z,89.12
2019-01-17T18:47:40.505Z,89.16
2019-01-17T18:50:17.954Z,89.72
2019-01-17T18:52:46.405Z,90.28
2019-01-17T18:55:15.336Z,90.33
2019-01-17T18:57:43.861Z,88.95
2019-01-17T19:00:19.530Z,91.07
2019-01-17T19:02:48.002Z,90.30
2019-01-17T19:05:16.521Z,90.62
2019-01-17T19:07:45.004Z,89.62
2019-01-17T19:10:15.096Z,89.80
2019-01-17T19:12:43.757Z,90.09
2019-01-17T19:15:15.412Z,90.00
2019-01-17T19:17:43.892Z,90.63
2019-01-17T19:20:15.082Z,90.12
2019-01-17T19:22:43.554Z,89.80
2019-01-17T19:25:12.282Z,90.46
2019-01-17T19:27:40.902Z,91.32
2019-01-17T19:30:15.277Z,90.83
2019-01-17T19:32:43.824Z,90.56
2019-01-17T19:35:12.264Z,90.90
2019-01-17T19:37:40.820Z,91.35
2019-01-17T19:40:27.207Z,91.39
2019-01-17T19:42:55.955Z,91.18
2019-01-17T19:45:24.403Z,91.17
2019-01-17T19:47:53.424Z,90.98
2019-01-17T19:50:30.974Z,91.41
2019-01-17T19:52:59.530Z,91.68
2019-01-17T19:55:28.145Z,90.73
2019-01-17T19:57:56.622Z,92.01
2019-01-17T20:00:25.441Z,91.66
2019-01-17T20:02:54.057Z,91.81
2019-01-17T20:05:25.281Z,91.36
2019-01-17T20:07:53.829Z,91.86
2019-01-17T20:10:24.994Z,91.91
2019-01-17T20:12:53.853Z,91.41
2019-01-17T20:15:22.313Z,92.01
2019-01-17T20:17:50.784Z,91.63
2019-01-17T20:20:19.613Z,90.96
2019-01-17T20:22:48.413Z,90.86
2019-01-17T20:25:16.881Z,90.93
2019-01-17T20:27:45.339Z,91.06
2019-01-17T20:30:22.451Z,91.35
2019-01-17T20:32:50.971Z,91.07
2019-01-17T20:35:19.520Z,90.96
2019-01-17T20:37:47.984Z,90.44
2019-01-17T20:40:21.310Z,90.94
2019-01-17T20:42:49.909Z,90.82
2019-01-17T20:45:18.937Z,91.31
2019-01-17T20:47:47.832Z,91.44
2019-01-17T20:50:25.122Z,90.89
2019-01-17T20:52:53.711Z,89.96
2019-01-17T20:55:22.186Z,90.25
2019-01-17T20:57:50.811Z,89.46
2019-01-17T21:00:25.110Z,89.33
2019-01-17T21:02:53.569Z,89.17
2019-01-17T21:05:22.666Z,89.09
2019-01-17T21:07:51.110Z,88.92
2019-01-17T21:10:19.937Z,89.05
2019-01-17T21:12:48.392Z,88.92
2019-01-17T21:15:16.951Z,89.32
2019-01-17T21:17:45.413Z,89.88
2019-01-17T21:20:14.751Z,90.53
2019-01-17T21:22:43.194Z,90.71
2019-01-17T21:25:19.226Z,90.71
2019-01-17T21:27:47.676Z,90.44
2019-01-17T21:30:19.331Z,90.39
2019-01-17T21:32:47.781Z,90.13
2019-01-17T21:35:16.324Z,90.87
2019-01-17T21:37:44.774Z,90.96
2019-01-17T21:40:16.132Z,91.04
2019-01-17T21:42:44.586Z,91.14
2019-01-17T21:45:15.403Z,91.26
2019-01-17T21:47:43.856Z,90.74
2019-01-17T21:50:24.181Z,91.13
2019-01-17T21:52:52.645Z,91.09
2019-01-17T21:55:21.290Z,91.54
2019-01-17T21:57:49.830Z,91.26
2019-01-17T22:00:24.054Z,90.81
2019-01-17T22:02:52.645Z,90.77
2019-01-17T22:05:21.124Z,90.36
2019-01-17T22:07:49.749Z,90.34
2019-01-17T22:10:19.370Z,90.08
2019-01-17T22:12:47.838Z,89.87
2019-01-17T22:15:18.961Z,90.27
2019-01-17T22:17:47.424Z,89.84
2019-01-17T22:20:16.713Z,89.63
2019-01-17T22:22:45.507Z,89.88
2019-01-17T22:25:16.752Z,89.58
2019-01-17T22:27:45.438Z,89.79
2019-01-17T22:30:16.577Z,89.68
2019-01-17T22:32:45.045Z,89.58
2019-01-17T22:35:13.664Z,89.66
2019-01-17T22:37:42.122Z,90.17
2019-01-17T22:40:13.152Z,89.55
2019-01-17T22:42:41.682Z,89.48
2019-01-17T22:45:13.096Z,88.99
2019-01-17T22:47:41.548Z,88.88
2019-01-17T22:50:13.103Z,88.53
2019-01-17T22:52:41.556Z,88.14
2019-01-17T22:55:10.669Z,87.96
2019-01-17T22:57:39.155Z,87.65
2019-01-17T23:00:16.669Z,87.58
2019-01-17T23:02:45.128Z,87.54
2019-01-17T23:05:13.613Z,86.92
2019-01-17T23:07:42.061Z,86.96
2019-01-17T23:10:10.544Z,87.07
2019-01-17T23:12:38.996Z,87.06
2019-01-17T23:15:08.917Z,87.06
2019-01-17T23:17:37.427Z,87.45
2019-01-17T23:20:09.561Z,87.04
2019-01-17T23:22:38.007Z,87.49
2019-01-17T23:25:08.132Z,87.67
2019-01-17T23:27:36.623Z,88.41
2019-01-17T23:30:08.230Z,88.12
2019-01-17T23:32:36.697Z,88.16
2019-01-17T23:35:06.991Z,88.26
2019-01-17T23:37:35.475Z,88.22
2019-01-17T23:40:05.505Z,88.31
2019-01-17T23:42:34.007Z,88.27
2019-01-17T23:45:02.461Z,88.72
2019-01-17T23:47:30.951Z,88.39
2019-01-17T23:49:59.395Z,88.49
2019-01-17T23:52:27.867Z,88.78
2019-01-17T23:54:56.323Z,88.32
2019-01-17T23:57:24.801Z,88.75
2019-01-17T23:59:53.260Z,88.29
